Terminal Aerodrome Forecast
Issued by NWS Charleston, SC

Home | Current Version | Previous Version | Text Only | Print | Product List | Glossary On
Versions: 1 2 3 4 5 6 7 8 9 10 11 12
000
FTUS42 KCHS 190525
TAFCHS
TAF
KCHS 190525Z 1906/2006 22011KT P6SM SCT200
     FM190900 23013G18KT P6SM VCSH OVC035
      TEMPO 1909/1911 6SM -RA OVC025
     FM191100 25008KT P6SM SCT020 OVC040
     FM191400 30013G19KT P6SM SCT060
     FM191800 32008KT P6SM SKC=

USA.gov is the U.S. government's official web portal to all federal, state and local government web resources and services.